Time;durP1;ratioP1;P1;durP2;ratioP2;P2;SDS_P1;SDS_P2;PMS_P1;PMS_P2;Temp;Humidity;BMP_temperature;BMP_pressure;BME280_temperature;BME280_humidity;BME280_pressure;Samples;Min_cycle;Max_cycle;Signal;HPM_P1;HPM_P2
2022/03/23 00:00:32;;;;;;;;;;;;;;;14.87;23.01;100678.75;4421819;32;34095;-80
2022/03/23 00:03:00;;;;;;;;;;;;;;;15.03;22.81;100687.75;4421719;32;34431;-81
2022/03/23 00:05:28;;;;;;;;;;;;;;;15.62;21.85;100692.31;4422422;32;34394;-81
2022/03/23 00:07:56;;;;;;;;;;;;;;;15.24;22.43;100685.56;4429739;32;34297;-81
2022/03/23 00:10:23;;;;;;;;;;;;;;;14.72;23.16;100681.06;4437301;32;32813;-81
2022/03/23 00:12:51;;;;;;;;;;;;;;;14.60;23.17;100673.88;4436883;32;34781;-81
2022/03/23 00:15:18;;;;;;;;;;;;;;;15.13;22.64;100681.00;4432973;32;34424;-82
2022/03/23 00:17:46;;;;;;;;;;;;;;;14.58;23.72;100679.06;4430000;32;34209;-82
2022/03/23 00:20:15;;;;;;;;;;;;;;;13.62;24.34;100677.72;4436886;32;33535;-83
2022/03/23 00:22:42;;;;;;;;;;;;;;;13.47;24.55;100686.88;4436568;32;34021;-81
2022/03/23 00:25:09;;;;;;;;;;;;;;;14.22;23.00;100679.12;4434266;32;34363;-82
2022/03/23 00:27:36;;;;;;;;;;;;;;;14.66;22.63;100673.09;4428763;32;34475;-82
2022/03/23 00:30:04;;;;;;;;;;;;;;;14.43;22.77;100672.59;4436950;32;34302;-80
2022/03/23 00:32:31;;;;;;;;;;;;;;;14.76;22.66;100672.44;4436410;32;34355;-81
2022/03/23 00:35:01;;;;;;;;;;;;;;;14.65;23.06;100668.75;4435805;32;34319;-80
2022/03/23 00:37:28;;;;;;;;;;;;;;;15.12;21.92;100661.84;4427300;32;33969;-81
2022/03/23 00:39:55;;;;;;;;;;;;;;;15.19;22.09;100663.72;4436550;32;34521;-82
2022/03/23 00:42:23;;;;;;;;;;;;;;;15.14;22.06;100664.47;4436743;32;34161;-82
2022/03/23 00:44:51;;;;;;;;;;;;;;;15.25;21.82;100662.91;4435368;32;34875;-81
2022/03/23 00:47:19;;;;;;;;;;;;;;;15.35;21.60;100659.62;4445013;32;35007;-82
2022/03/23 00:49:46;;;;;;;;;;;;;;;15.08;21.40;100660.91;4436967;32;34817;-82
2022/03/23 00:52:14;;;;;;;;;;;;;;;14.98;21.21;100658.94;4435501;32;35260;-83
2022/03/23 00:54:41;;;;;;;;;;;;;;;14.96;21.36;100655.41;4456500;32;34402;-83
2022/03/23 00:57:09;;;;;;;;;;;;;;;15.03;21.18;100656.41;4456307;32;35018;-81
2022/03/23 00:59:36;;;;;;;;;;;;;;;15.20;20.66;100657.63;4466548;32;34149;-81
2022/03/23 01:02:05;;;;;;;;;;;;;;;14.89;20.63;100653.56;4463024;32;34771;-82
2022/03/23 01:04:33;;;;;;;;;;;;;;;15.30;20.18;100656.94;4467503;32;35280;-82
2022/03/23 01:07:00;;;;;;;;;;;;;;;15.30;19.25;100650.81;4464286;32;34221;-82
2022/03/23 01:09:27;;;;;;;;;;;;;;;15.64;19.48;100646.13;4452008;32;34076;-81
2022/03/23 01:11:55;;;;;;;;;;;;;;;15.86;19.40;100650.87;4452120;32;34001;-81
2022/03/23 01:14:23;;;;;;;;;;;;;;;15.73;19.79;100644.59;4437983;32;33974;-81
2022/03/23 01:16:51;;;;;;;;;;;;;;;15.16;18.97;100647.97;4453523;32;35093;-81
2022/03/23 01:19:22;;;;;;;;;;;;;;;15.37;19.49;100647.44;4467333;32;34236;-81
2022/03/23 01:21:49;;;;;;;;;;;;;;;15.65;19.68;100640.06;4452873;32;35021;-83
2022/03/23 01:24:17;;;;;;;;;;;;;;;14.94;20.58;100640.59;4467122;32;35236;-81
2022/03/23 01:26:44;;;;;;;;;;;;;;;15.21;20.07;100640.22;4465760;32;34505;-81
2022/03/23 01:29:11;;;;;;;;;;;;;;;15.51;20.16;100642.47;4451906;32;33670;-81
2022/03/23 01:31:39;;;;;;;;;;;;;;;15.43;19.91;100636.22;4461227;32;34375;-81
2022/03/23 01:34:07;;;;;;;;;;;;;;;15.41;19.62;100635.31;4467083;32;35200;-82
2022/03/23 01:36:34;;;;;;;;;;;;;;;15.74;19.82;100638.50;4466930;32;33940;-80
2022/03/23 01:39:02;;;;;;;;;;;;;;;15.71;19.25;100629.72;4466487;32;34294;-81
2022/03/23 01:41:29;;;;;;;;;;;;;;;15.48;19.76;100629.34;4457820;32;34856;-82
2022/03/23 01:43:56;;;;;;;;;;;;;;;15.61;20.02;100630.41;4451566;32;35362;-82
2022/03/23 01:46:26;;;;;;;;;;;;;;;15.63;19.28;100628.69;4463800;32;34339;-81
2022/03/23 01:48:54;;;;;;;;;;;;;;;15.56;19.25;100628.59;4466334;32;33284;-81
2022/03/23 01:51:21;;;;;;;;;;;;;;;15.43;19.44;100625.78;4458953;32;34145;-82
2022/03/23 01:53:49;;;;;;;;;;;;;;;16.09;18.71;100626.78;4451235;32;34137;-81
2022/03/23 01:56:19;;;;;;;;;;;;;;;16.28;19.03;100621.81;4462872;32;33375;-81
2022/03/23 01:58:46;;;;;;;;;;;;;;;15.81;18.90;100634.25;4467089;32;33453;-82
2022/03/23 02:01:14;;;;;;;;;;;;;;;15.77;19.42;100632.44;4451767;32;34167;-81
2022/03/23 02:03:42;;;;;;;;;;;;;;;15.51;19.56;100632.88;4467100;32;33925;-82
2022/03/23 02:06:09;;;;;;;;;;;;;;;15.83;19.60;100629.91;4454407;32;34212;-81
2022/03/23 02:08:38;;;;;;;;;;;;;;;15.50;19.65;100632.88;4469105;32;34093;-82
2022/03/23 02:11:08;;;;;;;;;;;;;;;15.96;19.67;100629.25;4461967;32;34213;-82
2022/03/23 02:13:36;;;;;;;;;;;;;;;15.68;19.13;100627.06;4453357;32;34845;-81
2022/03/23 02:16:04;;;;;;;;;;;;;;;15.56;19.52;100628.59;4462726;32;34300;-81
2022/03/23 02:18:31;;;;;;;;;;;;;;;16.00;18.95;100627.56;4468568;32;34065;-82
2022/03/23 02:20:58;;;;;;;;;;;;;;;16.28;18.52;100627.03;4468371;32;34620;-82
2022/03/23 02:23:27;;;;;;;;;;;;;;;16.31;18.82;100623.59;4468685;32;35218;-81
2022/03/23 02:25:58;;;;;;;;;;;;;;;15.92;19.24;100632.66;4467733;32;33431;-81
2022/03/23 02:28:27;;;;;;;;;;;;;;;16.10;19.35;100624.22;4439288;32;34041;-82
2022/03/23 02:30:55;;;;;;;;;;;;;;;16.41;18.71;100622.00;4456829;32;34179;-81
2022/03/23 02:33:22;;;;;;;;;;;;;;;16.18;19.15;100619.09;4467074;32;33797;-81
2022/03/23 02:35:49;;;;;;;;;;;;;;;16.17;19.61;100622.53;4468451;32;33876;-81
2022/03/23 02:38:17;;;;;;;;;;;;;;;16.20;19.22;100618.22;4468490;32;33167;-81
2022/03/23 02:40:44;;;;;;;;;;;;;;;16.52;18.00;100623.87;4451197;32;33938;-81
2022/03/23 02:43:12;;;;;;;;;;;;;;;16.26;19.44;100622.69;4453186;32;34758;-82
2022/03/23 02:45:40;;;;;;;;;;;;;;;16.20;19.00;100617.34;4453555;32;34336;-82
2022/03/23 02:48:08;;;;;;;;;;;;;;;16.08;19.05;100627.66;4438794;32;33548;-82
2022/03/23 02:50:36;;;;;;;;;;;;;;;15.94;20.02;100624.84;4452792;32;34257;-81
2022/03/23 03:01:54;;;;;;;;;;;;;;;15.99;20.12;100628.41;4460675;32;34263;-81
2022/03/23 03:04:23;;;;;;;;;;;;;;;15.70;20.24;100630.59;4449324;32;34273;-83
2022/03/23 03:06:50;;;;;;;;;;;;;;;15.90;19.90;100623.03;4438800;32;35075;-81
2022/03/23 03:09:19;;;;;;;;;;;;;;;16.25;19.29;100620.91;4466069;32;33531;-81
2022/03/23 03:11:47;;;;;;;;;;;;;;;15.74;19.19;100619.31;4459399;32;32747;-81
2022/03/23 03:14:14;;;;;;;;;;;;;;;15.61;19.78;100625.16;4438345;32;34134;-81
2022/03/23 03:16:41;;;;;;;;;;;;;;;15.75;19.94;100629.78;4446092;32;33951;-82
2022/03/23 03:19:10;;;;;;;;;;;;;;;15.93;20.60;100626.56;4455526;32;33390;-81
2022/03/23 03:21:37;;;;;;;;;;;;;;;16.24;19.09;100624.38;4452784;32;34998;-82
2022/03/23 03:24:04;;;;;;;;;;;;;;;15.85;19.16;100628.22;4452798;32;34055;-81
2022/03/23 03:26:32;;;;;;;;;;;;;;;15.85;19.22;100624.72;4443691;32;33522;-82
2022/03/23 03:28:59;;;;;;;;;;;;;;;14.78;20.14;100629.00;4442700;32;33210;-81
2022/03/23 03:31:26;;;;;;;;;;;;;;;15.76;19.22;100625.47;4452706;32;34033;-82
2022/03/23 03:33:54;;;;;;;;;;;;;;;15.75;19.20;100618.47;4452656;32;35290;-81
2022/03/23 03:36:21;;;;;;;;;;;;;;;16.20;18.47;100622.59;4452673;32;34016;-82
2022/03/23 03:38:48;;;;;;;;;;;;;;;16.03;18.62;100620.63;4461922;32;33093;-81
2022/03/23 03:41:16;;;;;;;;;;;;;;;16.33;18.81;100623.59;4467552;32;34152;-82
2022/03/23 03:43:44;;;;;;;;;;;;;;;15.37;20.08;100618.69;4468106;32;35331;-81
2022/03/23 03:46:11;;;;;;;;;;;;;;;15.40;19.81;100620.50;4465801;32;33849;-81
2022/03/23 03:48:40;;;;;;;;;;;;;;;14.60;20.32;100619.94;4461230;32;34352;-81
2022/03/23 03:51:08;;;;;;;;;;;;;;;15.05;20.08;100615.56;4463879;32;33945;-81
2022/03/23 03:53:35;;;;;;;;;;;;;;;15.33;19.37;100616.91;4453326;32;34179;-82
2022/03/23 03:56:07;;;;;;;;;;;;;;;14.58;19.97;100616.44;4459470;32;34406;-81
2022/03/23 03:58:34;;;;;;;;;;;;;;;15.26;19.45;100615.03;4460291;32;33333;-82
2022/03/23 04:01:01;;;;;;;;;;;;;;;14.81;19.96;100613.34;4467756;32;33782;-82
2022/03/23 04:03:29;;;;;;;;;;;;;;;14.34;20.50;100616.75;4467908;32;34198;-81
2022/03/23 04:05:57;;;;;;;;;;;;;;;14.04;20.84;100624.81;4461016;32;34763;-82
2022/03/23 04:08:25;;;;;;;;;;;;;;;14.57;20.40;100625.09;4458954;32;34246;-81
2022/03/23 04:10:53;;;;;;;;;;;;;;;15.09;19.75;100623.47;4467450;32;35162;-81
2022/03/23 04:13:20;;;;;;;;;;;;;;;14.19;20.86;100632.09;4467872;32;35316;-81
2022/03/23 04:15:47;;;;;;;;;;;;;;;14.60;20.45;100625.16;4461937;32;34730;-82
2022/03/23 04:18:14;;;;;;;;;;;;;;;14.32;20.56;100628.03;4452774;32;33485;-81
2022/03/23 04:20:41;;;;;;;;;;;;;;;14.23;20.79;100623.47;4452151;32;34278;-81
2022/03/23 04:23:09;;;;;;;;;;;;;;;14.17;20.86;100628.59;4452597;32;34479;-82
2022/03/23 04:25:36;;;;;;;;;;;;;;;13.56;21.35;100622.88;4451834;32;34110;-81
2022/03/23 04:28:03;;;;;;;;;;;;;;;13.97;21.17;100625.53;4461835;32;33415;-80
2022/03/23 04:30:31;;;;;;;;;;;;;;;13.51;21.24;100629.66;4466850;32;34428;-81
2022/03/23 04:32:59;;;;;;;;;;;;;;;13.84;21.23;100623.50;4460666;32;35336;-81
2022/03/23 04:35:26;;;;;;;;;;;;;;;13.71;21.33;100624.06;4452393;32;34148;-81
2022/03/23 04:37:53;;;;;;;;;;;;;;;13.49;21.58;100622.69;4452354;32;33172;-82
2022/03/23 04:40:22;;;;;;;;;;;;;;;14.44;20.80;100623.06;4451969;32;33804;-81
2022/03/23 04:42:49;;;;;;;;;;;;;;;14.28;20.80;100613.13;4465583;32;34521;-80
2022/03/23 04:45:17;;;;;;;;;;;;;;;14.58;20.28;100620.75;4457308;32;34366;-81
2022/03/23 04:47:44;;;;;;;;;;;;;;;13.76;21.26;100619.84;4452151;32;34150;-81
2022/03/23 04:50:12;;;;;;;;;;;;;;;14.69;20.44;100626.19;4452135;32;34400;-81
2022/03/23 04:52:40;;;;;;;;;;;;;;;14.19;20.75;100628.59;4464288;32;34185;-82
2022/03/23 04:55:07;;;;;;;;;;;;;;;14.47;20.52;100623.13;4467295;32;33877;-82
2022/03/23 04:57:36;;;;;;;;;;;;;;;14.78;20.29;100629.87;4466694;32;33382;-82
2022/03/23 05:00:03;;;;;;;;;;;;;;;14.52;20.68;100634.56;4467924;32;34383;-82
2022/03/23 05:02:31;;;;;;;;;;;;;;;15.09;20.12;100627.81;4455902;32;34485;-81
2022/03/23 05:04:58;;;;;;;;;;;;;;;14.54;20.81;100639.81;4452396;32;33963;-81
2022/03/23 05:07:25;;;;;;;;;;;;;;;14.74;20.48;100628.03;4452116;32;32755;-80
2022/03/23 05:09:52;;;;;;;;;;;;;;;15.41;19.77;100633.56;4451767;32;34928;-81
2022/03/23 05:12:20;;;;;;;;;;;;;;;14.77;20.26;100637.66;4454318;32;34869;-81
2022/03/23 05:14:47;;;;;;;;;;;;;;;14.63;20.64;100637.41;4460220;32;35493;-82
2022/03/23 05:17:15;;;;;;;;;;;;;;;14.66;20.50;100641.78;4452068;32;33724;-82
2022/03/23 05:19:44;;;;;;;;;;;;;;;15.43;19.97;100647.56;4462776;32;34951;-82
2022/03/23 05:22:12;;;;;;;;;;;;;;;16.03;19.19;100644.16;4461432;32;34438;-81
2022/03/23 05:24:42;;;;;;;;;;;;;;;15.08;20.13;100650.44;4467112;32;33974;-82
2022/03/23 05:27:09;;;;;;;;;;;;;;;15.03;20.25;100652.06;4467186;32;34057;-81
2022/03/23 05:29:38;;;;;;;;;;;;;;;15.04;20.41;100653.84;4464769;32;34064;-82
2022/03/23 05:32:06;;;;;;;;;;;;;;;15.44;19.79;100653.66;4457888;32;34454;-80
2022/03/23 05:34:37;;;;;;;;;;;;;;;15.64;19.96;100649.63;4452828;32;34200;-82
2022/03/23 05:37:04;;;;;;;;;;;;;;;15.08;20.41;100652.19;4455211;32;34230;-82
2022/03/23 05:39:31;;;;;;;;;;;;;;;15.39;20.18;100650.97;4462206;32;33777;-81
2022/03/23 05:41:58;;;;;;;;;;;;;;;15.41;20.09;100653.59;4459956;32;33575;-80
2022/03/23 05:44:26;;;;;;;;;;;;;;;15.37;20.16;100655.28;4462779;32;34783;-80
2022/03/23 05:46:53;;;;;;;;;;;;;;;14.83;20.64;100650.84;4454681;32;33322;-81
2022/03/23 05:49:21;;;;;;;;;;;;;;;14.31;21.51;100647.13;4437550;32;34158;-81
2022/03/23 05:51:48;;;;;;;;;;;;;;;14.22;21.51;100653.03;4456590;32;35355;-83
2022/03/23 05:54:16;;;;;;;;;;;;;;;15.13;20.68;100644.41;4452681;32;33862;-82
2022/03/23 05:56:43;;;;;;;;;;;;;;;14.45;21.26;100648.31;4466528;32;33060;-81
2022/03/23 05:59:10;;;;;;;;;;;;;;;14.38;21.49;100645.53;4463090;32;33973;-81
2022/03/23 06:01:37;;;;;;;;;;;;;;;14.10;21.83;100648.44;4461866;32;33824;-84
2022/03/23 06:04:05;;;;;;;;;;;;;;;13.87;22.08;100665.28;4451261;32;33840;-82
2022/03/23 06:06:32;;;;;;;;;;;;;;;14.06;21.89;100657.03;4451447;32;33105;-82
2022/03/23 06:08:59;;;;;;;;;;;;;;;13.29;22.89;100661.25;4464087;32;33764;-81
2022/03/23 06:11:26;;;;;;;;;;;;;;;13.51;22.59;100657.47;4458848;32;34445;-81
2022/03/23 06:13:54;;;;;;;;;;;;;;;13.80;22.44;100652.94;4464659;32;34233;-84
2022/03/23 06:16:21;;;;;;;;;;;;;;;13.44;22.87;100648.59;4466687;32;33409;-82
2022/03/23 06:18:49;;;;;;;;;;;;;;;13.71;22.62;100653.59;4463875;32;34017;-84
2022/03/23 06:21:16;;;;;;;;;;;;;;;14.34;22.04;100655.03;4451295;32;34575;-82
2022/03/23 06:23:43;;;;;;;;;;;;;;;14.32;21.97;100656.75;4463248;32;34355;-82
2022/03/23 06:26:10;;;;;;;;;;;;;;;14.22;21.96;100653.03;4463464;32;33449;-81
2022/03/23 06:28:38;;;;;;;;;;;;;;;14.34;21.80;100657.63;4464958;32;34990;-82
2022/03/23 06:31:05;;;;;;;;;;;;;;;14.30;21.88;100653.19;4462683;32;35409;-82
2022/03/23 06:33:32;;;;;;;;;;;;;;;14.32;22.12;100652.41;4466314;32;34261;-83
2022/03/23 06:35:59;;;;;;;;;;;;;;;14.67;22.03;100659.22;4466328;32;33708;-82
2022/03/23 06:38:26;;;;;;;;;;;;;;;14.35;21.99;100656.78;4466043;32;35035;-80
2022/03/23 06:40:54;;;;;;;;;;;;;;;14.60;21.77;100653.00;4452127;32;34849;-82
2022/03/23 06:43:21;;;;;;;;;;;;;;;15.27;21.32;100656.00;4466482;32;34121;-82
2022/03/23 06:45:49;;;;;;;;;;;;;;;15.74;20.67;100658.53;4466097;32;33060;-84
2022/03/23 06:48:16;;;;;;;;;;;;;;;15.80;20.76;100658.66;4466073;32;33565;-82
2022/03/23 06:50:43;;;;;;;;;;;;;;;16.16;20.37;100665.25;4467798;32;35627;-82
2022/03/23 06:53:10;;;;;;;;;;;;;;;16.63;19.86;100659.75;4468293;32;34946;-81
2022/03/23 06:55:38;;;;;;;;;;;;;;;16.43;19.84;100657.78;4468276;32;33471;-83
2022/03/23 06:58:05;;;;;;;;;;;;;;;16.87;19.59;100662.72;4468504;32;33900;-83
2022/03/23 07:00:32;;;;;;;;;;;;;;;16.09;20.18;100663.41;4468496;32;33979;-82
2022/03/23 07:03:00;;;;;;;;;;;;;;;16.12;20.44;100661.72;4468460;32;34220;-84
2022/03/23 07:05:27;;;;;;;;;;;;;;;16.60;20.05;100655.38;4468469;32;33325;-82
2022/03/23 07:10:40;;;;;;;;;;;;;;;16.51;19.91;100652.62;4468338;32;34417;-81
2022/03/23 07:13:08;;;;;;;;;;;;;;;16.57;20.07;100657.97;4468078;32;34546;-83
2022/03/23 07:15:35;;;;;;;;;;;;;;;17.13;19.68;100655.13;4468403;32;33553;-81
2022/03/23 07:18:03;;;;;;;;;;;;;;;17.01;19.59;100658.50;4468549;32;34304;-81
2022/03/23 07:20:30;;;;;;;;;;;;;;;17.30;19.33;100659.62;4468068;32;34390;-82
2022/03/23 07:22:58;;;;;;;;;;;;;;;17.67;19.43;100671.31;4456945;32;34151;-81
2022/03/23 07:25:25;;;;;;;;;;;;;;;17.05;19.80;100663.75;4468173;32;33124;-83
2022/03/23 07:27:53;;;;;;;;;;;;;;;17.71;19.17;100660.87;4468403;32;33733;-80
2022/03/23 07:30:20;;;;;;;;;;;;;;;17.51;19.21;100658.09;4468610;32;34886;-80
2022/03/23 07:32:47;;;;;;;;;;;;;;;18.00;18.76;100660.25;4468241;32;34224;-80
2022/03/23 07:35:14;;;;;;;;;;;;;;;17.84;18.61;100661.88;4468019;32;33362;-80
2022/03/23 07:37:42;;;;;;;;;;;;;;;17.70;19.30;100663.50;4467950;32;35096;-81
2022/03/23 07:40:09;;;;;;;;;;;;;;;17.47;19.67;100658.94;4468222;32;34187;-81
2022/03/23 07:42:37;;;;;;;;;;;;;;;17.25;19.92;100656.97;4467977;32;35007;-80
2022/03/23 07:45:05;;;;;;;;;;;;;;;17.16;19.88;100656.88;4464760;32;33343;-81
2022/03/23 07:47:33;;;;;;;;;;;;;;;17.08;19.57;100653.31;4450691;32;34890;-80
2022/03/23 07:50:00;;;;;;;;;;;;;;;17.44;19.73;100656.28;4452367;32;34020;-80
2022/03/23 07:52:27;;;;;;;;;;;;;;;17.64;19.01;100656.44;4452368;32;34667;-81
2022/03/23 07:54:54;;;;;;;;;;;;;;;18.39;18.72;100653.44;4452289;32;34193;-81
2022/03/23 07:57:21;;;;;;;;;;;;;;;18.69;18.24;100647.44;4452266;32;35073;-81
2022/03/23 07:59:49;;;;;;;;;;;;;;;18.27;18.40;100654.25;4452492;32;34493;-81
2022/03/23 08:02:16;;;;;;;;;;;;;;;18.30;18.42;100648.16;4451504;32;34470;-81
2022/03/23 08:04:44;;;;;;;;;;;;;;;18.12;18.48;100656.81;4452410;32;33442;-81
2022/03/23 08:07:11;;;;;;;;;;;;;;;17.95;19.02;100654.06;4452598;32;34046;-81
2022/03/23 08:09:38;;;;;;;;;;;;;;;17.99;18.80;100651.50;4452505;32;34104;-81
2022/03/23 08:12:06;;;;;;;;;;;;;;;19.20;18.56;100657.22;4452665;32;35082;-81
2022/03/23 08:14:33;;;;;;;;;;;;;;;19.30;17.80;100644.97;4452856;32;33377;-81
2022/03/23 08:17:00;;;;;;;;;;;;;;;19.14;18.08;100645.81;4438706;32;34372;-83
2022/03/23 08:19:28;;;;;;;;;;;;;;;19.17;17.74;100646.72;4452241;32;34992;-81
2022/03/23 08:21:55;;;;;;;;;;;;;;;18.99;18.48;100645.81;4452145;32;34075;-82
2022/03/23 08:24:22;;;;;;;;;;;;;;;18.34;18.66;100647.31;4452487;32;33177;-82
2022/03/23 08:26:49;;;;;;;;;;;;;;;17.86;18.90;100656.63;4452013;32;35026;-83
2022/03/23 08:29:16;;;;;;;;;;;;;;;18.75;18.32;100646.59;4452278;32;35297;-82
2022/03/23 08:31:44;;;;;;;;;;;;;;;18.43;18.58;100650.84;4452151;32;34918;-82
2022/03/23 08:34:11;;;;;;;;;;;;;;;18.25;19.04;100648.09;4452179;32;33208;-82
2022/03/23 08:36:38;;;;;;;;;;;;;;;19.20;18.41;100646.69;4451925;32;34961;-82
2022/03/23 08:39:06;;;;;;;;;;;;;;;19.48;18.43;100645.84;4451706;32;35296;-83
2022/03/23 08:41:34;;;;;;;;;;;;;;;19.67;17.43;100652.91;4451997;32;34427;-81
2022/03/23 08:44:01;;;;;;;;;;;;;;;19.80;17.31;100652.00;4452660;32;33632;-81
2022/03/23 08:46:28;;;;;;;;;;;;;;;19.37;17.54;100651.97;4452332;32;34506;-84
2022/03/23 08:48:56;;;;;;;;;;;;;;;19.12;18.03;100648.44;4452386;32;33993;-84
2022/03/23 08:51:23;;;;;;;;;;;;;;;19.28;17.60;100654.63;4452147;32;34169;-82
2022/03/23 08:53:50;;;;;;;;;;;;;;;19.11;17.45;100657.22;4450872;32;34091;-81
2022/03/23 08:56:18;;;;;;;;;;;;;;;19.56;17.57;100647.59;4452165;32;35075;-82
2022/03/23 08:58:49;;;;;;;;;;;;;;;20.64;16.48;100643.84;4452288;32;35163;-82
2022/03/23 09:01:16;;;;;;;;;;;;;;;19.48;17.63;100645.84;4452013;32;34506;-84
2022/03/23 09:03:44;;;;;;;;;;;;;;;19.55;17.36;100639.72;4438203;32;32891;-82
2022/03/23 09:06:11;;;;;;;;;;;;;;;19.79;17.22;100642.34;4452113;32;33490;-82
2022/03/23 09:08:38;;;;;;;;;;;;;;;20.88;16.77;100628.81;4438267;32;34007;-81
2022/03/23 09:11:06;;;;;;;;;;;;;;;20.30;16.56;100629.06;4451876;32;33997;-82
2022/03/23 09:13:33;;;;;;;;;;;;;;;19.70;17.65;100637.13;4451408;32;33829;-82
2022/03/23 09:16:00;;;;;;;;;;;;;;;20.13;17.24;100632.63;4437837;32;34000;-84
2022/03/23 09:18:28;;;;;;;;;;;;;;;19.72;16.79;100635.34;4451731;32;33651;-82
2022/03/23 09:20:56;;;;;;;;;;;;;;;21.04;16.79;100626.97;4437867;32;34737;-82
2022/03/23 09:23:31;;;;;;;;;;;;;;;20.12;16.42;100632.66;4451684;32;33191;-85
2022/03/23 09:26:01;;;;;;;;;;;;;;;20.45;16.45;100630.75;4437678;32;33982;-82
2022/03/23 09:28:28;;;;;;;;;;;;;;;20.19;16.68;100631.72;4438021;32;33490;-82
2022/03/23 09:30:59;;;;;;;;;;;;;;;21.08;16.26;100626.94;4438056;32;35645;-83
2022/03/23 09:33:28;;;;;;;;;;;;;;;21.32;16.18;100625.84;4451706;32;34107;-82
2022/03/23 09:35:55;;;;;;;;;;;;;;;21.28;15.14;100624.13;4451931;32;34315;-82
2022/03/23 09:38:22;;;;;;;;;;;;;;;22.23;15.50;100617.13;4451630;32;33629;-82
2022/03/23 09:40:51;;;;;;;;;;;;;;;21.87;14.62;100619.25;4451497;32;35192;-83
2022/03/23 09:43:23;;;;;;;;;;;;;;;21.22;15.67;100623.31;4437789;32;34095;-82
2022/03/23 09:45:51;;;;;;;;;;;;;;;22.04;14.98;100611.13;4451525;32;33992;-82
2022/03/23 09:48:20;;;;;;;;;;;;;;;21.78;15.53;100609.66;4437469;32;35201;-83
2022/03/23 09:50:53;;;;;;;;;;;;;;;21.90;14.98;100618.34;4451697;32;33832;-82
2022/03/23 09:53:22;;;;;;;;;;;;;;;21.82;15.15;100616.66;4451577;32;33066;-83
2022/03/23 09:55:51;;;;;;;;;;;;;;;22.56;14.27;100605.25;4437355;32;33913;-82
2022/03/23 09:58:18;;;;;;;;;;;;;;;22.33;14.43;100606.41;4451180;32;34398;-82
2022/03/23 10:00:45;;;;;;;;;;;;;;;22.30;14.49;100603.81;4451302;32;33449;-81
2022/03/23 10:03:13;;;;;;;;;;;;;;;22.11;14.30;100599.59;4451103;32;34071;-82
2022/03/23 10:05:53;;;;;;;;;;;;;;;22.18;14.53;100601.31;4450989;32;34089;-82
2022/03/23 10:08:40;;;;;;;;;;;;;;;22.50;14.56;100594.75;4451282;32;34212;-82
2022/03/23 10:11:16;;;;;;;;;;;;;;;21.41;14.76;100608.25;4451238;32;33548;-82
2022/03/23 10:14:09;;;;;;;;;;;;;;;22.02;15.36;100591.81;4451337;32;34301;-83
2022/03/23 10:16:45;;;;;;;;;;;;;;;21.93;14.96;100592.75;4451114;32;35024;-82
2022/03/23 10:19:13;;;;;;;;;;;;;;;22.66;14.02;100593.66;4451113;32;35132;-82
2022/03/23 10:21:40;;;;;;;;;;;;;;;21.75;14.68;100596.50;4451130;32;34703;-82
2022/03/23 10:24:07;;;;;;;;;;;;;;;22.20;14.49;100585.44;4451614;32;32971;-82
2022/03/23 10:26:38;;;;;;;;;;;;;;;23.08;14.13;100591.31;4453135;32;33980;-82
2022/03/23 10:29:20;;;;;;;;;;;;;;;22.50;14.83;100584.19;4453557;32;34316;-82
2022/03/23 10:31:58;;;;;;;;;;;;;;;23.37;13.14;100582.87;4453248;32;34065;-82
2022/03/23 10:34:25;;;;;;;;;;;;;;;22.87;13.35;100578.38;4453228;32;34462;-82
2022/03/23 10:36:54;;;;;;;;;;;;;;;22.56;13.90;100569.13;4438981;32;33653;-82
2022/03/23 10:39:28;;;;;;;;;;;;;;;23.51;13.87;100567.62;4452996;32;34759;-81
2022/03/23 10:41:56;;;;;;;;;;;;;;;24.05;12.88;100569.28;4452975;32;34237;-82
2022/03/23 10:44:23;;;;;;;;;;;;;;;23.25;13.12;100568.09;4453039;32;33372;-84
2022/03/23 10:46:50;;;;;;;;;;;;;;;22.50;12.62;100563.03;4438630;32;33934;-81
2022/03/23 10:49:28;;;;;;;;;;;;;;;23.46;12.46;100550.97;4452873;32;34292;-83
2022/03/23 10:52:05;;;;;;;;;;;;;;;22.96;12.50;100563.28;4452787;32;33999;-81
2022/03/23 10:54:33;;;;;;;;;;;;;;;23.03;12.63;100554.34;4438943;32;33044;-82
2022/03/23 10:57:02;;;;;;;;;;;;;;;22.75;12.77;100553.88;4453174;32;34248;-82
2022/03/23 10:59:29;;;;;;;;;;;;;;;22.52;12.33;100556.84;4453051;32;34799;-82
2022/03/23 11:02:07;;;;;;;;;;;;;;;23.64;11.90;100544.47;4453159;32;34474;-82
2022/03/23 11:04:40;;;;;;;;;;;;;;;22.29;12.79;100541.31;4452775;32;34234;-82
2022/03/23 11:07:08;;;;;;;;;;;;;;;23.26;12.58;100538.09;4452943;32;34611;-81
2022/03/23 11:18:06;;;;;;;;;;;;;;;23.52;12.69;100521.75;4452693;32;34321;-83
2022/03/23 11:20:46;;;;;;;;;;;;;;;24.00;12.02;100523.47;4452563;32;34007;-85
2022/03/23 11:23:19;;;;;;;;;;;;;;;23.84;11.54;100512.34;4438979;32;34878;-81
2022/03/23 11:25:46;;;;;;;;;;;;;;;23.74;11.30;100505.47;4452772;32;33751;-82
2022/03/23 11:28:14;;;;;;;;;;;;;;;23.27;11.08;100513.38;4438816;32;34124;-82
2022/03/23 11:30:42;;;;;;;;;;;;;;;24.05;11.06;100508.34;4452397;32;34260;-81
2022/03/23 11:33:10;;;;;;;;;;;;;;;24.05;10.96;100505.69;4452480;32;33721;-83
2022/03/23 11:35:47;;;;;;;;;;;;;;;24.11;10.77;100500.28;4452578;32;32790;-82
2022/03/23 11:38:18;;;;;;;;;;;;;;;24.30;11.02;100494.59;4452462;32;34935;-82
2022/03/23 11:40:47;;;;;;;;;;;;;;;24.86;10.85;100497.72;4438755;32;33997;-81
2022/03/23 11:43:14;;;;;;;;;;;;;;;25.18;10.53;100492.47;4438719;32;34367;-81
2022/03/23 11:46:02;;;;;;;;;;;;;;;24.56;11.27;100494.03;4441216;32;34579;-82
2022/03/23 11:48:32;;;;;;;;;;;;;;;24.76;12.30;100495.28;4438731;32;34260;-82
2022/03/23 11:51:19;;;;;;;;;;;;;;;24.00;11.19;100487.25;4452442;32;34366;-82
2022/03/23 11:53:49;;;;;;;;;;;;;;;23.15;11.47;100492.44;4452410;32;33883;-81
2022/03/23 11:56:26;;;;;;;;;;;;;;;23.74;10.92;100477.22;4439309;32;33304;-84
2022/03/23 11:58:53;;;;;;;;;;;;;;;23.87;11.21;100463.72;4452374;32;35775;-83
2022/03/23 12:01:20;;;;;;;;;;;;;;;25.17;10.17;100460.69;4452297;32;34144;-82
2022/03/23 12:03:55;;;;;;;;;;;;;;;24.30;11.01;100462.78;4438783;32;34336;-83
2022/03/23 12:06:44;;;;;;;;;;;;;;;24.35;10.45;100453.78;4438746;32;34258;-82
2022/03/23 12:09:30;;;;;;;;;;;;;;;23.08;11.34;100461.69;4452464;32;33902;-81
2022/03/23 12:11:58;;;;;;;;;;;;;;;23.21;11.19;100457.03;4452314;32;34098;-82
2022/03/23 12:14:26;;;;;;;;;;;;;;;23.95;10.71;100452.06;4438213;32;35008;-81
2022/03/23 12:16:55;;;;;;;;;;;;;;;23.25;11.60;100446.38;4452286;32;33106;-82
2022/03/23 12:19:51;;;;;;;;;;;;;;;23.65;11.64;100436.78;4452320;32;34069;-81
2022/03/23 12:22:33;;;;;;;;;;;;;;;25.08;10.89;100437.00;4452192;32;34289;-82
2022/03/23 12:25:07;;;;;;;;;;;;;;;23.74;11.21;100432.19;4452321;32;33664;-84
2022/03/23 12:27:53;;;;;;;;;;;;;;;24.18;10.77;100433.00;4438369;32;32883;-81
2022/03/23 12:30:26;;;;;;;;;;;;;;;24.22;10.79;100424.06;4452557;32;34161;-81
2022/03/23 12:32:54;;;;;;;;;;;;;;;24.96;10.34;100407.25;4452442;32;35349;-82
2022/03/23 12:35:31;;;;;;;;;;;;;;;25.27;10.36;100416.16;4452393;32;33957;-85
2022/03/23 12:38:02;;;;;;;;;;;;;;;25.42;9.99;100407.78;4438383;32;32693;-82
2022/03/23 12:40:39;;;;;;;;;;;;;;;24.67;10.14;100410.66;4452018;32;34954;-82
2022/03/23 12:43:07;;;;;;;;;;;;;;;24.60;11.20;100411.72;4452117;32;35095;-82
2022/03/23 12:45:37;;;;;;;;;;;;;;;24.98;9.92;100405.41;4452146;32;34154;-81
2022/03/23 12:48:06;;;;;;;;;;;;;;;23.87;10.39;100418.72;4451300;32;33453;-82
2022/03/23 12:59:19;;;;;;;;;;;;;;;25.16;9.50;100388.16;4452473;32;33521;-84
2022/03/23 13:01:46;;;;;;;;;;;;;;;24.85;9.56;100398.69;4452110;32;34335;-82
2022/03/23 13:04:32;;;;;;;;;;;;;;;24.58;9.30;100389.66;4438283;32;33998;-82
2022/03/23 13:07:00;;;;;;;;;;;;;;;25.32;9.13;100377.97;4452057;32;34166;-82
2022/03/23 13:09:27;;;;;;;;;;;;;;;25.61;9.16;100382.44;4438040;32;34444;-82
2022/03/23 13:11:57;;;;;;;;;;;;;;;24.17;9.48;100388.88;4437705;32;35138;-82
2022/03/23 13:14:26;;;;;;;;;;;;;;;24.45;9.53;100381.16;4452281;32;34162;-82